CW6633 Weather Reports


Display with metric or nautical units.
time (UTC)temp
F
wind
direction
speed
MPH
gust
MPH
rain 1hr
in
rain 24hr
in
rain mn
in
humidity
%
barometer
mb
20190123164017 35 156 4.0 13.0 0.00 0.00 0.00 37 1008.5
20190123163017 34 141 3.0 20.0 0.00 0.00 0.00 35 1008.6
20190123162018 34 135 6.0 22.0 0.00 0.00 0.00 34 1008.7
20190123161019 34 132 1.0 7.0 0.00 0.00 0.00 32 1009.0
20190123160017 34 145 3.0 8.0 0.00 0.00 0.00 30 1009.4
20190123155017 34 146 3.0 11.0 0.00 0.00 0.00 30 1008.9
20190123154017 34 136 3.0 9.0 0.00 0.00 0.00 27 1009.0
20190123153017 34 151 2.0 9.0 0.00 0.00 0.00 27 1008.9
20190123152018 34 131 3.0 11.0 0.00 0.00 0.00 26 1009.2
20190123151019 34 135 5.0 15.0 0.00 0.00 0.00 26 1009.1
20190123150017 33 110 7.0 17.0 0.00 0.00 0.00 27 1008.5
20190123145020 32 111 5.0 14.0 0.00 0.00 0.00 29 1008.1
20190123144017 31 112 4.0 13.0 0.00 0.00 0.00 31 1007.7
20190123143018 30 142 5.0 15.0 0.00 0.00 0.00 32 1007.1
20190123142018 29 151 4.0 15.0 0.00 0.00 0.00 34 1007.0
20190123141019 29 159 3.0 12.0 0.00 0.00 0.00 35 1007.0
20190123140017 29 151 3.0 18.0 0.00 0.00 0.00 35 1007.0
20190123135017 28 118 5.0 19.0 0.00 0.00 0.00 35 1006.8
20190123134017 28 130 2.0 10.0 0.00 0.00 0.00 36 1007.0
20190123133018 28 150 2.0 15.0 0.00 0.00 0.00 36 1007.6
20190123132018 27 112 5.0 17.0 0.00 0.00 0.00 36 1007.8
20190123131017 27 121 2.0 12.0 0.00 0.00 0.00 37 1007.4
20190123130017 27 111 3.0 12.0 0.00 0.00 0.00 37 1007.4
20190123125018 27 111 4.0 14.0 0.00 0.00 0.00 37 1007.9
20190123124017 26 117 2.0 17.0 0.00 0.00 0.00 37 1007.8
20190123123017 26 119 2.0 12.0 0.00 0.00 0.00 37 1007.7
20190123122017 27 105 4.0 15.0 0.00 0.00 0.00 37 1008.0
20190123121017 27 120 2.0 15.0 0.00 0.00 0.00 36 1008.4
20190123120017 27 113 4.0 17.0 0.00 0.00 0.00 36 1008.6
20190123115017 27 112 5.0 16.0 0.00 0.00 0.00 36 1008.6
20190123114018 27 110 5.0 13.0 0.00 0.00 0.00 36 1009.1
20190123113017 27 109 6.0 16.0 0.00 0.00 0.00 36 1009.4
20190123112018 27 112 6.0 20.0 0.00 0.00 0.00 36 1009.5
20190123111018 27 111 6.0 16.0 0.00 0.00 0.00 37 1009.6
20190123110017 27 117 6.0 17.0 0.00 0.00 0.00 37 1009.8
20190123105018 27 110 6.0 17.0 0.00 0.00 0.00 37 1009.7
20190123104017 27 102 7.0 17.0 0.00 0.00 0.00 37 1010.0
20190123103017 27 114 6.0 14.0 0.00 0.00 0.00 37 1010.6
20190123102018 27 113 6.0 18.0 0.00 0.00 0.00 37 1010.5
20190123100017 27 116 5.0 18.0 0.00 0.00 0.00 37 1010.0
20190123095017 27 117 6.0 19.0 0.00 0.00 0.00 37 1010.5
20190123094018 27 114 8.0 17.0 0.00 0.00 0.00 36 1010.4
20190123093017 27 110 5.0 16.0 0.00 0.00 0.00 36 1010.5
20190123092019 26 121 5.0 13.0 0.00 0.00 0.00 36 1010.5
20190123091018 26 115 5.0 16.0 0.00 0.00 0.00 35 1010.4
20190123090017 26 112 5.0 18.0 0.00 0.00 0.00 37 1010.1
20190123085017 25 118 4.0 17.0 0.00 0.00 0.00 37 1010.0
20190123084017 25 109 4.0 15.0 0.00 0.00 0.00 37 1009.8
20190123083017 25 120 3.0 8.0 0.00 0.00 0.00 36 1010.2
20190123082019 25 117 1.0 12.0 0.00 0.00 0.00 35 1010.3
20190123081017 26 115 2.0 12.0 0.00 0.00 0.00 35 1009.9
20190123080018 25 128 1.0 9.0 0.00 0.00 0.00 35 1010.0
20190123075020 25 121 0.0 5.0 0.00 0.00 0.00 36 1010.3
20190123074017 25 123 1.0 7.0 0.00 0.00 0.00 36 1010.4
20190123073017 25 144 0.0 6.0 0.00 0.00 0.00 36 1010.2
20190123072016 25 112 4.0 14.0 0.00 0.00 0.00 35 1010.3
20190123071019 25 137 1.0 7.0 0.00 0.00 0.00 36 1010.3
20190123070018 25 138 0.0 7.0 0.00 0.00 0.00 36 1010.4
20190123065017 25 111 2.0 9.0 0.00 0.00 0.00 35 1010.7
20190123064017 25 113 3.0 11.0 0.00 0.00 0.00 35 1010.7
20190123063017 25 109 2.0 9.0 0.00 0.00 0.00 37 1010.7
20190123062018 25 109 3.0 13.0 0.00 0.00 0.00 36 1009.9
20190123061016 23 117 1.0 8.0 0.00 0.00 0.00 40 1009.8
20190123060017 20 98 0.0 1.0 0.00 0.00 0.00 47 1008.8
20190123055016 20 99 0.0 2.0 0.00 0.00 0.00 48 1009.1
20190123054017 19 101 0.0 2.0 0.00 0.00 0.00 51 1008.7
20190123053016 19 120 0.0 1.0 0.00 0.00 0.00 52 1008.7
20190123052017 20 120 0.0 1.0 0.00 0.00 0.00 52 1008.8
20190123051017 20 120 0.0 1.0 0.00 0.00 0.00 52 1008.9
20190123050017 20 120 0.0 3.0 0.00 0.00 0.00 53 1009.0
20190123045016 20 39 0.0 4.0 0.00 0.00 0.00 57 1009.2
20190123044017 20 42 0.0 3.0 0.00 0.00 0.00 58 1009.4
20190123043016 20 81 0.0 3.0 0.00 0.00 0.00 59 1008.9
20190123042017 20 75 0.0 6.0 0.00 0.00 0.00 58 1009.3
20190123041018 21 79 0.0 7.0 0.00 0.00 0.00 58 1009.6
20190123040016 20 32 0.0 4.0 0.00 0.00 0.00 60 1009.8
20190123035017 20 48 1.0 5.0 0.00 0.00 0.00 61 1009.5
20190123034017 20 28 1.0 5.0 0.00 0.00 0.00 61 1009.5
20190123033017 20 46 0.0 4.0 0.00 0.00 0.00 63 1009.5
20190123032017 20 129 0.0 3.0 0.00 0.00 0.00 63 1009.6
20190123031018 20 48 0.0 6.0 0.00 0.00 0.00 64 1009.5
20190123030018 19 107 0.0 3.0 0.00 0.00 0.00 66 1008.9
20190123025016 18 0.0 3.0 0.00 0.00 0.00 66 1008.9
20190123024016 18 48 0.0 3.0 0.00 0.00 0.00 68 1008.9
20190123023016 17 93 0.0 3.0 0.00 0.00 0.00 69 1008.9
20190123022016 17 127 0.0 1.0 0.00 0.00 0.00 70 1008.6
20190123021018 17 127 0.0 1.0 0.00 0.00 0.00 70 1008.7
20190123020016 17 0.0 1.0 0.00 0.00 0.00 70 1008.9
20190123015016 18 0.0 0.0 0.00 0.00 0.00 69 1009.5
20190123014016 18 0.0 0.0 0.00 0.00 0.00 70 1009.5
20190123013016 18 130 0.0 1.0 0.00 0.00 0.00 69 1009.5
20190123012016 18 0.0 0.0 0.00 0.00 0.00 69 1009.5
20190123011016 19 0.0 0.0 0.00 0.00 0.00 66 1009.3
20190123010016 19 130 0.0 1.0 0.00 0.00 0.00 66 1009.7
20190123005017 20 130 0.0 1.0 0.00 0.00 0.00 65 1009.6
20190123004016 20 130 0.0 1.0 0.00 0.00 0.00 65 1010.0
20190123003016 21 130 0.0 1.0 0.00 0.00 0.00 63 1010.0
20190123002016 22 0.0 0.0 0.00 0.00 0.00 59 1010.5
20190123001016 24 0.0 0.0 0.00 0.00 0.00 57 1010.5
20190123000017 25 130 0.0 1.0 0.00 0.00 0.00 52 1010.9
20190122235016 26 130 0.0 1.0 0.00 0.00 0.00 51 1011.3
20190122234016 26 125 0.0 2.0 0.00 0.00 0.00 51 1011.3
20190122233016 27 100 0.0 3.0 0.00 0.00 0.00 50 1011.4
20190122232016 27 135 0.0 3.0 0.00 0.00 0.00 50 1011.9
20190122231015 28 132 0.0 4.0 0.00 0.00 0.00 48 1011.9
20190122230017 27 143 0.0 3.0 0.00 0.00 0.00 49 1012.0
20190122225016 27 136 1.0 4.0 0.00 0.00 0.00 49 1012.0
20190122224016 28 170 0.0 5.0 0.00 0.00 0.00 48 1011.8
20190122223016 28 172 0.0 4.0 0.00 0.00 0.00 49 1012.3
20190122222016 29 150 1.0 4.0 0.00 0.00 0.00 48 1011.8
20190122221017 29 165 0.0 4.0 0.00 0.00 0.00 49 1011.9
20190122220016 28 142 0.0 5.0 0.00 0.00 0.00 49 1011.9
20190122215017 28 187 1.0 7.0 0.00 0.00 0.00 47 1012.0
20190122214016 28 182 1.0 5.0 0.00 0.00 0.00 49 1012.0
20190122213016 29 143 1.0 7.0 0.00 0.00 0.00 49 1012.0
20190122212016 29 156 1.0 7.0 0.00 0.00 0.00 49 1011.9
20190122211017 29 185 1.0 6.0 0.00 0.00 0.00 49 1011.9
20190122210016 28 142 2.0 9.0 0.00 0.00 0.00 50 1011.9
20190122205020 28 147 2.0 8.0 0.00 0.00 0.00 51 1012.0
20190122204016 28 160 1.0 7.0 0.00 0.00 0.00 52 1012.1
20190122203017 28 148 2.0 6.0 0.00 0.00 0.00 54 1012.1
20190122202018 27 172 1.0 7.0 0.00 0.00 0.00 55 1012.2
20190122201020 27 142 2.0 8.0 0.00 0.00 0.00 56 1011.7
20190122200016 26 156 2.0 9.0 0.00 0.00 0.00 58 1011.9
20190122195018 27 145 1.0 7.0 0.00 0.00 0.00 58 1012.0
20190122194017 27 155 2.0 9.0 0.00 0.00 0.00 58 1012.0
20190122193017 27 183 1.0 6.0 0.00 0.00 0.00 58 1012.1
20190122192017 27 186 2.0 8.0 0.00 0.00 0.00 58 1012.2
20190122191018 26 151 3.0 8.0 0.00 0.00 0.00 60 1012.2
20190122190018 26 157 2.0 10.0 0.00 0.00 0.00 60 1012.4
20190122185018 27 178 1.0 8.0 0.00 0.00 0.00 62 1012.4
20190122184017 27 145 2.0 8.0 0.00 0.00 0.00 63 1012.5
20190122183018 26 151 2.0 8.0 0.00 0.00 0.00 65 1012.5
20190122182017 26 169 1.0 8.0 0.00 0.00 0.00 68 1012.5
20190122181018 25 145 2.0 7.0 0.00 0.00 0.00 71 1012.5
20190122180017 25 152 2.0 9.0 0.00 0.00 0.00 69 1012.7
20190122175018 25 140 2.0 7.0 0.00 0.00 0.00 70 1013.1
20190122174018 25 156 2.0 7.0 0.00 0.00 0.00 69 1012.5
20190122173017 25 138 2.0 8.0 0.00 0.00 0.00 69 1012.7
20190122172018 25 146 1.0 5.0 0.00 0.00 0.00 72 1012.7
20190122171018 25 138 1.0 5.0 0.00 0.00 0.00 71 1013.1
20190122170017 25 161 1.0 4.0 0.00 0.00 0.00 70 1013.2
20190122165017 24 142 0.0 3.0 0.00 0.00 0.00 72 1013.2